Pretty Hana — DSQJ5 — position and weather

sailwx.info

Track history (hours):
 
Tides and Currents Weather Stations Pressure Air Temp Water Temp Dewpoint Dewpoint Depression Visibility Wind Speed Wind Dir Waves Ship Positions

Pretty Hana

Last reported at 2016-Sep-14 09:14 UTC. Time now 2016-Sep-30 11:50 UTC.
Position N 35°06' E 139°41'.
Warning: this ship's position is 16 days out of date.

Length 64 m; draft 4.3 m.

Type: Ship (hazmat cat B). MMSI: 441600000.

Date/timePositionNaut miles runAvg speedWind from/ knotsBaromVisibWave heightAir tempDewpointWater temp
2016-Sep-14 09:14N 35°06' E 139°41'811.2
2016-Sep-14 08:33N 35°12' E 139°46'1111.1
2016-Sep-14 07:33N 35°23' E 139°42'1110.9
2016-Sep-14 06:33N 35°30' E 139°52'12 3.9
2016-Sep-14 03:31N 35°36' E 140°05'3 0.7
2016-Sep-13 22:28N 35°35' E 140°01'0 0.0
2016-Sep-13 20:16N 35°35' E 140°01'4 2.5
2016-Sep-13 18:32N 35°32' E 139°57'8 8.4
2016-Sep-13 17:33N 35°27' E 139°49'8 8.4
2016-Sep-13 16:33N 35°19' E 139°44'19 3.9
2016-Sep-13 11:31N 35°34' E 140°01'5 2.2
2016-Sep-13 09:31N 35°36' E 140°05'0 0.0
2016-Sep-13 07:31N 35°36' E 140°05'0 0.0
2016-Sep-13 06:31N 35°36' E 140°05'0 0.0
2016-Sep-13 04:25N 35°36' E 140°05'8 4.6
2016-Sep-13 02:33N 35°31' E 139°57'21 7.1
2016-Sep-12 23:33N 35°12' E 139°47'  
2016-Sep-08 04:33N 35°04' E 119°39'1210.0
2016-Sep-08 03:23N 35°04' E 119°24'16 0.7
2016-Sep-07 03:04N 35°04' E 119°44'14 0.8
2016-Sep-06 09:33N 35°03' E 119°27'9 1.0
2016-Sep-06 00:28N 35°05' E 119°38'0 0.0
2016-Sep-05 18:18N 35°05' E 119°38'7 9.6
2016-Sep-05 17:33N 35°04' E 119°47'  
Track history (hours):
 
Tides and Currents Weather Stations Pressure Air Temp Water Temp Dewpoint Dewpoint Depression Visibility Wind Speed Wind Dir Waves Ship Positions

Pretty Hana

Last reported at 2016-Sep-14 09:14 UTC. Time now 2016-Sep-30 11:50 UTC.
Position N 35°06' E 139°41'.
Warning: this ship's position is 16 days out of date.

Length 64 m; draft 4.3 m.

Type: Ship (hazmat cat B). MMSI: 441600000.

Date/timePositionNaut miles runAvg speedWind from/ knotsBaromVisibWave heightAir tempDewpointWater temp
2016-Sep-14 09:14N 35°06' E 139°41'811.2
2016-Sep-14 08:33N 35°12' E 139°46'1111.1
2016-Sep-14 07:33N 35°23' E 139°42'1110.9
2016-Sep-14 06:33N 35°30' E 139°52'12 3.9
2016-Sep-14 03:31N 35°36' E 140°05'3 0.7
2016-Sep-13 22:28N 35°35' E 140°01'0 0.0
2016-Sep-13 20:16N 35°35' E 140°01'4 2.5
2016-Sep-13 18:32N 35°32' E 139°57'8 8.4
2016-Sep-13 17:33N 35°27' E 139°49'8 8.4
2016-Sep-13 16:33N 35°19' E 139°44'19 3.9
2016-Sep-13 11:31N 35°34' E 140°01'5 2.2
2016-Sep-13 09:31N 35°36' E 140°05'0 0.0
2016-Sep-13 07:31N 35°36' E 140°05'0 0.0
2016-Sep-13 06:31N 35°36' E 140°05'0 0.0
2016-Sep-13 04:25N 35°36' E 140°05'8 4.6
2016-Sep-13 02:33N 35°31' E 139°57'21 7.1
2016-Sep-12 23:33N 35°12' E 139°47'  
2016-Sep-08 04:33N 35°04' E 119°39'1210.0
2016-Sep-08 03:23N 35°04' E 119°24'16 0.7
2016-Sep-07 03:04N 35°04' E 119°44'14 0.8
2016-Sep-06 09:33N 35°03' E 119°27'9 1.0
2016-Sep-06 00:28N 35°05' E 119°38'0 0.0
2016-Sep-05 18:18N 35°05' E 119°38'7 9.6
2016-Sep-05 17:33N 35°04' E 119°47'  

Dump ship's entire track history